sensor_id;sensor_type;location;lat;lon;timestamp;temperature;humidity
15983;DHT22;14442;50.196;8.096;2023-04-03T00:01:59;23.70;42.30
15983;DHT22;14442;50.196;8.096;2023-04-03T00:04:26;23.80;42.40
15983;DHT22;14442;50.196;8.096;2023-04-03T00:06:53;23.80;42.40
15983;DHT22;14442;50.196;8.096;2023-04-03T00:09:21;23.80;42.40
15983;DHT22;14442;50.196;8.096;2023-04-03T00:11:48;23.80;42.40
15983;DHT22;14442;50.196;8.096;2023-04-03T00:14:14;23.80;42.40
15983;DHT22;14442;50.196;8.096;2023-04-03T00:16:41;23.80;42.30
15983;DHT22;14442;50.196;8.096;2023-04-03T00:19:08;23.80;42.30
15983;DHT22;14442;50.196;8.096;2023-04-03T00:21:37;23.80;42.40
15983;DHT22;14442;50.196;8.096;2023-04-03T00:24:04;23.80;42.40
15983;DHT22;14442;50.196;8.096;2023-04-03T00:26:32;23.70;42.20
15983;DHT22;14442;50.196;8.096;2023-04-03T00:28:59;23.70;42.30
15983;DHT22;14442;50.196;8.096;2023-04-03T00:31:25;23.70;42.30
15983;DHT22;14442;50.196;8.096;2023-04-03T00:33:52;23.70;42.90
15983;DHT22;14442;50.196;8.096;2023-04-03T00:36:18;23.70;42.20
15983;DHT22;14442;50.196;8.096;2023-04-03T00:38:45;23.70;42.20
15983;DHT22;14442;50.196;8.096;2023-04-03T00:41:12;23.70;42.30
15983;DHT22;14442;50.196;8.096;2023-04-03T00:43:40;23.70;42.30
15983;DHT22;14442;50.196;8.096;2023-04-03T00:46:06;23.80;42.30
15983;DHT22;14442;50.196;8.096;2023-04-03T00:48:37;23.70;42.20
15983;DHT22;14442;50.196;8.096;2023-04-03T00:51:08;23.70;42.30
15983;DHT22;14442;50.196;8.096;2023-04-03T00:53:38;23.70;42.20
15983;DHT22;14442;50.196;8.096;2023-04-03T00:56:09;23.70;42.20
15983;DHT22;14442;50.196;8.096;2023-04-03T00:58:41;23.70;42.20
15983;DHT22;14442;50.196;8.096;2023-04-03T01:01:12;23.70;42.30
15983;DHT22;14442;50.196;8.096;2023-04-03T01:03:40;23.70;42.20
15983;DHT22;14442;50.196;8.096;2023-04-03T01:06:07;23.70;42.20
15983;DHT22;14442;50.196;8.096;2023-04-03T01:08:34;23.70;42.30
15983;DHT22;14442;50.196;8.096;2023-04-03T01:11:01;23.60;42.20
15983;DHT22;14442;50.196;8.096;2023-04-03T01:13:30;23.60;42.20
15983;DHT22;14442;50.196;8.096;2023-04-03T01:16:00;23.60;42.10
15983;DHT22;14442;50.196;8.096;2023-04-03T01:18:27;23.60;42.20
15983;DHT22;14442;50.196;8.096;2023-04-03T01:21:29;23.60;42.20
15983;DHT22;14442;50.196;8.096;2023-04-03T01:24:16;23.60;42.20
15983;DHT22;14442;50.196;8.096;2023-04-03T01:26:45;23.60;42.10
15983;DHT22;14442;50.196;8.096;2023-04-03T01:29:12;23.60;42.20
15983;DHT22;14442;50.196;8.096;2023-04-03T01:31:51;23.60;42.20
15983;DHT22;14442;50.196;8.096;2023-04-03T01:34:19;23.60;42.20
15983;DHT22;14442;50.196;8.096;2023-04-03T01:36:46;23.60;42.20
15983;DHT22;14442;50.196;8.096;2023-04-03T01:39:13;23.60;42.20
15983;DHT22;14442;50.196;8.096;2023-04-03T01:41:40;23.60;42.20
15983;DHT22;14442;50.196;8.096;2023-04-03T01:44:07;23.60;42.20
15983;DHT22;14442;50.196;8.096;2023-04-03T01:46:33;23.50;42.10
15983;DHT22;14442;50.196;8.096;2023-04-03T01:49:02;23.50;42.10
15983;DHT22;14442;50.196;8.096;2023-04-03T01:51:29;23.50;42.10
15983;DHT22;14442;50.196;8.096;2023-04-03T01:53:56;23.50;42.10
15983;DHT22;14442;50.196;8.096;2023-04-03T01:56:22;23.50;42.20
15983;DHT22;14442;50.196;8.096;2023-04-03T01:58:49;23.50;42.10
15983;DHT22;14442;50.196;8.096;2023-04-03T02:01:16;23.50;42.20
15983;DHT22;14442;50.196;8.096;2023-04-03T02:03:42;23.50;42.20
15983;DHT22;14442;50.196;8.096;2023-04-03T02:06:10;23.50;42.20
15983;DHT22;14442;50.196;8.096;2023-04-03T02:08:37;23.50;42.10
15983;DHT22;14442;50.196;8.096;2023-04-03T02:11:04;23.40;42.10
15983;DHT22;14442;50.196;8.096;2023-04-03T02:13:30;23.40;42.10
15983;DHT22;14442;50.196;8.096;2023-04-03T02:15:57;23.40;42.10
15983;DHT22;14442;50.196;8.096;2023-04-03T02:18:24;23.40;42.10
15983;DHT22;14442;50.196;8.096;2023-04-03T02:20:51;23.40;42.10
15983;DHT22;14442;50.196;8.096;2023-04-03T02:23:19;23.40;42.10
15983;DHT22;14442;50.196;8.096;2023-04-03T02:25:45;23.40;42.10
15983;DHT22;14442;50.196;8.096;2023-04-03T02:28:14;23.40;42.10
15983;DHT22;14442;50.196;8.096;2023-04-03T02:30:41;23.40;42.10
15983;DHT22;14442;50.196;8.096;2023-04-03T02:33:07;23.40;42.10
15983;DHT22;14442;50.196;8.096;2023-04-03T02:35:34;23.40;42.10
15983;DHT22;14442;50.196;8.096;2023-04-03T02:38:02;23.40;42.10
15983;DHT22;14442;50.196;8.096;2023-04-03T02:40:30;23.40;42.10
15983;DHT22;14442;50.196;8.096;2023-04-03T02:42:56;23.40;42.10
15983;DHT22;14442;50.196;8.096;2023-04-03T02:45:23;23.40;42.10
15983;DHT22;14442;50.196;8.096;2023-04-03T02:47:50;23.40;42.10
15983;DHT22;14442;50.196;8.096;2023-04-03T02:50:17;23.40;42.10
15983;DHT22;14442;50.196;8.096;2023-04-03T02:52:43;23.40;42.00
15983;DHT22;14442;50.196;8.096;2023-04-03T02:55:13;23.40;42.00
15983;DHT22;14442;50.196;8.096;2023-04-03T02:57:42;23.40;42.00
15983;DHT22;14442;50.196;8.096;2023-04-03T03:00:10;23.40;42.10
15983;DHT22;14442;50.196;8.096;2023-04-03T03:02:36;23.40;42.00
15983;DHT22;14442;50.196;8.096;2023-04-03T03:05:04;23.40;42.00
15983;DHT22;14442;50.196;8.096;2023-04-03T03:07:31;23.40;41.90
15983;DHT22;14442;50.196;8.096;2023-04-03T03:09:58;23.40;42.00
15983;DHT22;14442;50.196;8.096;2023-04-03T03:12:24;23.40;41.90
15983;DHT22;14442;50.196;8.096;2023-04-03T03:14:52;23.40;41.90
15983;DHT22;14442;50.196;8.096;2023-04-03T03:17:19;23.30;41.90
15983;DHT22;14442;50.196;8.096;2023-04-03T03:19:46;23.40;42.00
15983;DHT22;14442;50.196;8.096;2023-04-03T03:22:12;23.30;41.80
15983;DHT22;14442;50.196;8.096;2023-04-03T03:24:39;23.40;41.90
15983;DHT22;14442;50.196;8.096;2023-04-03T03:27:06;23.30;41.80
15983;DHT22;14442;50.196;8.096;2023-04-03T03:29:32;23.30;41.90
15983;DHT22;14442;50.196;8.096;2023-04-03T03:32:00;23.30;41.80
15983;DHT22;14442;50.196;8.096;2023-04-03T03:34:27;23.30;41.70
15983;DHT22;14442;50.196;8.096;2023-04-03T03:36:54;23.30;41.60
15983;DHT22;14442;50.196;8.096;2023-04-03T03:39:20;23.20;41.50
15983;DHT22;14442;50.196;8.096;2023-04-03T03:41:47;23.20;41.50
15983;DHT22;14442;50.196;8.096;2023-04-03T03:44:15;23.20;41.40
15983;DHT22;14442;50.196;8.096;2023-04-03T03:46:41;23.10;41.30
15983;DHT22;14442;50.196;8.096;2023-04-03T03:49:09;23.10;41.30
15983;DHT22;14442;50.196;8.096;2023-04-03T03:51:36;23.10;41.30
15983;DHT22;14442;50.196;8.096;2023-04-03T03:54:03;23.10;41.30
15983;DHT22;14442;50.196;8.096;2023-04-03T03:56:30;23.10;41.30
15983;DHT22;14442;50.196;8.096;2023-04-03T03:58:57;23.10;41.40
15983;DHT22;14442;50.196;8.096;2023-04-03T04:01:23;23.10;41.40
15983;DHT22;14442;50.196;8.096;2023-04-03T04:03:51;23.10;41.30
15983;DHT22;14442;50.196;8.096;2023-04-03T04:06:20;23.00;41.20
15983;DHT22;14442;50.196;8.096;2023-04-03T04:08:47;23.10;41.30
15983;DHT22;14442;50.196;8.096;2023-04-03T04:11:14;23.00;41.20
15983;DHT22;14442;50.196;8.096;2023-04-03T04:13:40;23.00;41.30
15983;DHT22;14442;50.196;8.096;2023-04-03T04:16:07;23.00;41.30
15983;DHT22;14442;50.196;8.096;2023-04-03T04:18:35;23.00;41.20
15983;DHT22;14442;50.196;8.096;2023-04-03T04:21:02;23.00;41.20
15983;DHT22;14442;50.196;8.096;2023-04-03T04:23:30;23.00;41.10
15983;DHT22;14442;50.196;8.096;2023-04-03T04:25:56;23.00;41.20
15983;DHT22;14442;50.196;8.096;2023-04-03T04:28:23;22.90;41.00
15983;DHT22;14442;50.196;8.096;2023-04-03T04:30:49;22.90;41.00
15983;DHT22;14442;50.196;8.096;2023-04-03T04:33:16;22.90;41.20
15983;DHT22;14442;50.196;8.096;2023-04-03T04:35:43;22.90;41.20
15983;DHT22;14442;50.196;8.096;2023-04-03T04:38:09;22.90;41.20
15983;DHT22;14442;50.196;8.096;2023-04-03T04:40:37;22.90;41.10
15983;DHT22;14442;50.196;8.096;2023-04-03T04:43:04;22.90;41.00
15983;DHT22;14442;50.196;8.096;2023-04-03T04:45:31;22.90;41.00
15983;DHT22;14442;50.196;8.096;2023-04-03T04:47:58;22.90;41.10
15983;DHT22;14442;50.196;8.096;2023-04-03T04:50:24;22.80;41.00
15983;DHT22;14442;50.196;8.096;2023-04-03T04:52:51;22.80;41.00
15983;DHT22;14442;50.196;8.096;2023-04-03T04:55:18;22.80;41.00
15983;DHT22;14442;50.196;8.096;2023-04-03T04:57:46;22.80;41.00
15983;DHT22;14442;50.196;8.096;2023-04-03T05:00:14;22.80;41.00
15983;DHT22;14442;50.196;8.096;2023-04-03T05:02:41;22.80;41.10
15983;DHT22;14442;50.196;8.096;2023-04-03T05:05:08;22.80;41.10
15983;DHT22;14442;50.196;8.096;2023-04-03T05:07:34;22.80;41.00
15983;DHT22;14442;50.196;8.096;2023-04-03T05:10:02;22.70;40.90
15983;DHT22;14442;50.196;8.096;2023-04-03T05:12:28;22.70;41.00
15983;DHT22;14442;50.196;8.096;2023-04-03T05:14:56;22.70;41.00
15983;DHT22;14442;50.196;8.096;2023-04-03T05:17:23;22.60;40.80
15983;DHT22;14442;50.196;8.096;2023-04-03T05:19:50;22.60;40.80
15983;DHT22;14442;50.196;8.096;2023-04-03T05:22:16;22.60;40.90
15983;DHT22;14442;50.196;8.096;2023-04-03T05:24:43;22.60;40.70
15983;DHT22;14442;50.196;8.096;2023-04-03T05:27:10;22.70;40.60
15983;DHT22;14442;50.196;8.096;2023-04-03T05:29:36;22.70;40.40
15983;DHT22;14442;50.196;8.096;2023-04-03T05:32:04;22.70;40.40
15983;DHT22;14442;50.196;8.096;2023-04-03T05:34:31;22.70;40.40
15983;DHT22;14442;50.196;8.096;2023-04-03T05:36:58;22.70;40.50
15983;DHT22;14442;50.196;8.096;2023-04-03T05:39:25;22.70;40.70
15983;DHT22;14442;50.196;8.096;2023-04-03T05:41:51;22.70;40.40
15983;DHT22;14442;50.196;8.096;2023-04-03T05:44:18;22.70;40.40
15983;DHT22;14442;50.196;8.096;2023-04-03T05:46:45;22.80;40.50
15983;DHT22;14442;50.196;8.096;2023-04-03T05:49:13;22.90;40.60
15983;DHT22;14442;50.196;8.096;2023-04-03T05:51:40;22.90;40.50
15983;DHT22;14442;50.196;8.096;2023-04-03T05:54:10;22.90;40.50
15983;DHT22;14442;50.196;8.096;2023-04-03T05:56:39;23.00;40.60
15983;DHT22;14442;50.196;8.096;2023-04-03T05:59:06;23.00;40.70
15983;DHT22;14442;50.196;8.096;2023-04-03T06:01:33;23.00;40.80
15983;DHT22;14442;50.196;8.096;2023-04-03T06:04:00;23.00;40.70
15983;DHT22;14442;50.196;8.096;2023-04-03T06:06:46;23.00;40.80
15983;DHT22;14442;50.196;8.096;2023-04-03T06:09:13;23.00;40.90
15983;DHT22;14442;50.196;8.096;2023-04-03T06:11:40;23.00;40.90
15983;DHT22;14442;50.196;8.096;2023-04-03T06:14:08;23.00;41.00
15983;DHT22;14442;50.196;8.096;2023-04-03T06:16:36;23.00;40.90
15983;DHT22;14442;50.196;8.096;2023-04-03T06:19:03;23.00;40.90
15983;DHT22;14442;50.196;8.096;2023-04-03T06:21:31;23.00;41.00
15983;DHT22;14442;50.196;8.096;2023-04-03T06:23:59;23.00;41.00
15983;DHT22;14442;50.196;8.096;2023-04-03T06:26:26;23.10;41.00
15983;DHT22;14442;50.196;8.096;2023-04-03T06:28:53;23.00;41.00
15983;DHT22;14442;50.196;8.096;2023-04-03T06:31:19;23.00;41.00
15983;DHT22;14442;50.196;8.096;2023-04-03T06:33:46;23.00;41.00
15983;DHT22;14442;50.196;8.096;2023-04-03T06:36:13;23.00;41.00
15983;DHT22;14442;50.196;8.096;2023-04-03T06:38:39;23.00;40.90
15983;DHT22;14442;50.196;8.096;2023-04-03T06:41:07;23.00;40.90
15983;DHT22;14442;50.196;8.096;2023-04-03T06:43:34;23.00;40.90
15983;DHT22;14442;50.196;8.096;2023-04-03T06:46:01;23.00;40.90
15983;DHT22;14442;50.196;8.096;2023-04-03T06:48:28;23.00;41.60
15983;DHT22;14442;50.196;8.096;2023-04-03T06:50:55;23.00;41.00
15983;DHT22;14442;50.196;8.096;2023-04-03T06:53:21;23.00;41.00
15983;DHT22;14442;50.196;8.096;2023-04-03T06:55:48;23.00;41.10
15983;DHT22;14442;50.196;8.096;2023-04-03T06:58:16;23.00;41.10
15983;DHT22;14442;50.196;8.096;2023-04-03T07:00:43;23.00;41.00
15983;DHT22;14442;50.196;8.096;2023-04-03T07:03:10;23.00;41.00
15983;DHT22;14442;50.196;8.096;2023-04-03T07:05:36;23.00;41.00
15983;DHT22;14442;50.196;8.096;2023-04-03T07:08:03;23.00;41.00
15983;DHT22;14442;50.196;8.096;2023-04-03T07:10:30;22.90;41.10
15983;DHT22;14442;50.196;8.096;2023-04-03T07:12:57;22.70;40.90
15983;DHT22;14442;50.196;8.096;2023-04-03T07:15:25;22.60;40.60
15983;DHT22;14442;50.196;8.096;2023-04-03T07:17:51;22.60;40.70
15983;DHT22;14442;50.196;8.096;2023-04-03T07:20:18;22.50;40.80
15983;DHT22;14442;50.196;8.096;2023-04-03T07:22:45;22.60;40.70
15983;DHT22;14442;50.196;8.096;2023-04-03T07:25:11;22.50;40.60
15983;DHT22;14442;50.196;8.096;2023-04-03T07:27:38;22.60;40.70
15983;DHT22;14442;50.196;8.096;2023-04-03T07:30:06;22.50;40.50
15983;DHT22;14442;50.196;8.096;2023-04-03T07:32:34;22.50;40.60
15983;DHT22;14442;50.196;8.096;2023-04-03T07:35:02;22.50;40.50
15983;DHT22;14442;50.196;8.096;2023-04-03T07:37:28;22.50;40.50
15983;DHT22;14442;50.196;8.096;2023-04-03T07:39:55;22.50;40.60
15983;DHT22;14442;50.196;8.096;2023-04-03T07:42:23;22.50;40.60
15983;DHT22;14442;50.196;8.096;2023-04-03T07:44:52;22.50;40.50
15983;DHT22;14442;50.196;8.096;2023-04-03T07:47:18;22.60;40.40
15983;DHT22;14442;50.196;8.096;2023-04-03T07:49:47;22.70;40.40
15983;DHT22;14442;50.196;8.096;2023-04-03T07:52:14;22.70;40.40
15983;DHT22;14442;50.196;8.096;2023-04-03T07:54:41;22.70;40.40
15983;DHT22;14442;50.196;8.096;2023-04-03T07:57:08;22.70;40.40
15983;DHT22;14442;50.196;8.096;2023-04-03T07:59:35;22.70;40.40
15983;DHT22;14442;50.196;8.096;2023-04-03T08:02:01;22.80;40.60
15983;DHT22;14442;50.196;8.096;2023-04-03T08:04:30;22.80;40.60
15983;DHT22;14442;50.196;8.096;2023-04-03T08:06:58;22.80;40.60
15983;DHT22;14442;50.196;8.096;2023-04-03T08:09:25;22.80;40.70
15983;DHT22;14442;50.196;8.096;2023-04-03T08:11:51;22.80;40.70
15983;DHT22;14442;50.196;8.096;2023-04-03T08:14:19;22.80;40.80
15983;DHT22;14442;50.196;8.096;2023-04-03T08:16:47;22.90;40.80
15983;DHT22;14442;50.196;8.096;2023-04-03T08:19:15;22.80;40.60
15983;DHT22;14442;50.196;8.096;2023-04-03T08:21:43;22.90;40.80
15983;DHT22;14442;50.196;8.096;2023-04-03T08:24:12;22.90;40.80
15983;DHT22;14442;50.196;8.096;2023-04-03T08:26:38;22.90;40.70
15983;DHT22;14442;50.196;8.096;2023-04-03T08:29:05;22.80;40.60
15983;DHT22;14442;50.196;8.096;2023-04-03T08:31:32;22.90;40.80
15983;DHT22;14442;50.196;8.096;2023-04-03T08:33:58;22.80;40.70
15983;DHT22;14442;50.196;8.096;2023-04-03T08:36:27;22.80;40.70
15983;DHT22;14442;50.196;8.096;2023-04-03T08:38:56;22.80;40.60
15983;DHT22;14442;50.196;8.096;2023-04-03T08:41:29;22.90;40.60
15983;DHT22;14442;50.196;8.096;2023-04-03T08:44:02;22.90;40.70
15983;DHT22;14442;50.196;8.096;2023-04-03T08:46:39;23.00;40.80
15983;DHT22;14442;50.196;8.096;2023-04-03T08:49:11;23.00;40.90
15983;DHT22;14442;50.196;8.096;2023-04-03T08:51:45;23.00;40.90
15983;DHT22;14442;50.196;8.096;2023-04-03T08:54:19;23.00;41.00
15983;DHT22;14442;50.196;8.096;2023-04-03T08:56:49;23.00;41.20
15983;DHT22;14442;50.196;8.096;2023-04-03T08:59:22;23.00;41.20
15983;DHT22;14442;50.196;8.096;2023-04-03T09:01:51;22.80;40.90
15983;DHT22;14442;50.196;8.096;2023-04-03T09:04:18;22.70;40.40
15983;DHT22;14442;50.196;8.096;2023-04-03T09:06:48;22.70;40.40
15983;DHT22;14442;50.196;8.096;2023-04-03T09:09:28;22.70;40.40
15983;DHT22;14442;50.196;8.096;2023-04-03T09:12:04;22.70;40.20
15983;DHT22;14442;50.196;8.096;2023-04-03T09:14:38;22.70;40.20
15983;DHT22;14442;50.196;8.096;2023-04-03T09:17:13;22.70;40.00
15983;DHT22;14442;50.196;8.096;2023-04-03T09:19:46;22.70;40.10
15983;DHT22;14442;50.196;8.096;2023-04-03T09:22:20;22.70;39.90
15983;DHT22;14442;50.196;8.096;2023-04-03T09:24:52;22.70;39.90
15983;DHT22;14442;50.196;8.096;2023-04-03T09:27:23;22.70;39.90
15983;DHT22;14442;50.196;8.096;2023-04-03T09:29:53;22.70;39.70
15983;DHT22;14442;50.196;8.096;2023-04-03T09:32:26;22.70;39.80
15983;DHT22;14442;50.196;8.096;2023-04-03T09:34:53;22.60;39.70
15983;DHT22;14442;50.196;8.096;2023-04-03T09:37:35;22.60;39.80
15983;DHT22;14442;50.196;8.096;2023-04-03T09:40:03;22.70;39.90
15983;DHT22;14442;50.196;8.096;2023-04-03T09:42:32;22.70;39.80
15983;DHT22;14442;50.196;8.096;2023-04-03T09:45:00;22.60;39.70
15983;DHT22;14442;50.196;8.096;2023-04-03T09:47:28;22.60;39.70
15983;DHT22;14442;50.196;8.096;2023-04-03T09:50:17;22.60;39.70
15983;DHT22;14442;50.196;8.096;2023-04-03T09:52:47;22.60;40.30
15983;DHT22;14442;50.196;8.096;2023-04-03T09:55:15;22.60;39.50
15983;DHT22;14442;50.196;8.096;2023-04-03T09:57:43;22.70;39.50
15983;DHT22;14442;50.196;8.096;2023-04-03T10:00:20;22.60;39.30
15983;DHT22;14442;50.196;8.096;2023-04-03T10:02:51;22.60;39.70
15983;DHT22;14442;50.196;8.096;2023-04-03T10:05:31;22.60;39.60
15983;DHT22;14442;50.196;8.096;2023-04-03T10:08:19;22.50;39.30
15983;DHT22;14442;50.196;8.096;2023-04-03T10:11:06;22.50;39.40
15983;DHT22;14442;50.196;8.096;2023-04-03T10:13:42;22.50;39.20
15983;DHT22;14442;50.196;8.096;2023-04-03T10:16:18;22.50;39.30
15983;DHT22;14442;50.196;8.096;2023-04-03T10:18:49;22.60;39.50
15983;DHT22;14442;50.196;8.096;2023-04-03T10:21:29;22.60;39.50
15983;DHT22;14442;50.196;8.096;2023-04-03T10:24:06;22.60;39.50
15983;DHT22;14442;50.196;8.096;2023-04-03T10:26:39;22.60;39.50
15983;DHT22;14442;50.196;8.096;2023-04-03T10:29:16;22.60;39.60
15983;DHT22;14442;50.196;8.096;2023-04-03T10:31:50;22.60;39.50
15983;DHT22;14442;50.196;8.096;2023-04-03T10:34:22;22.70;39.30
15983;DHT22;14442;50.196;8.096;2023-04-03T10:36:55;22.70;39.10
15983;DHT22;14442;50.196;8.096;2023-04-03T10:39:32;22.70;39.00
15983;DHT22;14442;50.196;8.096;2023-04-03T10:42:05;22.80;39.10
15983;DHT22;14442;50.196;8.096;2023-04-03T10:44:47;22.80;39.10
15983;DHT22;14442;50.196;8.096;2023-04-03T10:47:21;22.80;39.10
15983;DHT22;14442;50.196;8.096;2023-04-03T10:49:55;22.80;39.00
15983;DHT22;14442;50.196;8.096;2023-04-03T10:52:31;22.90;39.10
15983;DHT22;14442;50.196;8.096;2023-04-03T10:55:09;22.90;39.10
15983;DHT22;14442;50.196;8.096;2023-04-03T10:57:41;22.90;39.10
15983;DHT22;14442;50.196;8.096;2023-04-03T11:00:16;22.90;39.10
15983;DHT22;14442;50.196;8.096;2023-04-03T11:02:50;22.90;39.00
15983;DHT22;14442;50.196;8.096;2023-04-03T11:05:25;22.90;39.00
15983;DHT22;14442;50.196;8.096;2023-04-03T11:07:53;22.90;39.00
15983;DHT22;14442;50.196;8.096;2023-04-03T11:10:26;22.90;38.90
15983;DHT22;14442;50.196;8.096;2023-04-03T11:13:01;22.90;38.90
15983;DHT22;14442;50.196;8.096;2023-04-03T11:15:32;22.90;38.90
15983;DHT22;14442;50.196;8.096;2023-04-03T11:18:03;22.90;38.90
15983;DHT22;14442;50.196;8.096;2023-04-03T11:20:33;22.90;38.90
15983;DHT22;14442;50.196;8.096;2023-04-03T11:23:01;23.00;39.10
15983;DHT22;14442;50.196;8.096;2023-04-03T11:25:30;22.90;38.90
15983;DHT22;14442;50.196;8.096;2023-04-03T11:28:00;23.00;39.70
15983;DHT22;14442;50.196;8.096;2023-04-03T11:30:32;23.00;39.10
15983;DHT22;14442;50.196;8.096;2023-04-03T11:33:09;23.00;39.10
15983;DHT22;14442;50.196;8.096;2023-04-03T11:35:43;23.00;39.00
15983;DHT22;14442;50.196;8.096;2023-04-03T11:38:17;23.00;38.90
15983;DHT22;14442;50.196;8.096;2023-04-03T11:40:45;23.10;39.00
15983;DHT22;14442;50.196;8.096;2023-04-03T11:43:22;23.10;39.00
15983;DHT22;14442;50.196;8.096;2023-04-03T11:45:53;23.10;39.00
15983;DHT22;14442;50.196;8.096;2023-04-03T11:51:41;23.20;39.00
15983;DHT22;14442;50.196;8.096;2023-04-03T11:57:45;23.30;39.00
15983;DHT22;14442;50.196;8.096;2023-04-03T12:00:47;23.30;38.90
15983;DHT22;14442;50.196;8.096;2023-04-03T12:09:28;23.40;38.90
15983;DHT22;14442;50.196;8.096;2023-04-03T12:11:57;23.40;38.90
15983;DHT22;14442;50.196;8.096;2023-04-03T12:14:25;23.40;38.90
15983;DHT22;14442;50.196;8.096;2023-04-03T12:16:53;23.50;39.00
15983;DHT22;14442;50.196;8.096;2023-04-03T12:19:42;23.50;38.90
15983;DHT22;14442;50.196;8.096;2023-04-03T12:22:13;23.50;39.00
15983;DHT22;14442;50.196;8.096;2023-04-03T12:24:40;23.60;39.00
15983;DHT22;14442;50.196;8.096;2023-04-03T12:30:00;23.50;38.70
15983;DHT22;14442;50.196;8.096;2023-04-03T12:32:41;23.40;38.70
15983;DHT22;14442;50.196;8.096;2023-04-03T12:35:17;23.40;38.60
15983;DHT22;14442;50.196;8.096;2023-04-03T12:37:59;23.40;38.60
15983;DHT22;14442;50.196;8.096;2023-04-03T12:40:31;23.40;38.10
15983;DHT22;14442;50.196;8.096;2023-04-03T12:43:14;23.40;37.80
15983;DHT22;14442;50.196;8.096;2023-04-03T12:45:46;23.40;37.60
15983;DHT22;14442;50.196;8.096;2023-04-03T12:48:15;23.40;37.50
15983;DHT22;14442;50.196;8.096;2023-04-03T12:50:46;23.40;37.50
15983;DHT22;14442;50.196;8.096;2023-04-03T12:53:16;23.50;37.40
15983;DHT22;14442;50.196;8.096;2023-04-03T12:55:44;23.50;37.30
15983;DHT22;14442;50.196;8.096;2023-04-03T12:58:16;23.50;37.30
15983;DHT22;14442;50.196;8.096;2023-04-03T13:00:43;23.60;37.30
15983;DHT22;14442;50.196;8.096;2023-04-03T13:03:21;23.60;37.00
15983;DHT22;14442;50.196;8.096;2023-04-03T13:05:50;23.60;36.90
15983;DHT22;14442;50.196;8.096;2023-04-03T13:08:17;23.60;36.90
15983;DHT22;14442;50.196;8.096;2023-04-03T13:10:54;23.60;36.80
15983;DHT22;14442;50.196;8.096;2023-04-03T13:13:21;23.60;36.80
15983;DHT22;14442;50.196;8.096;2023-04-03T13:15:49;23.70;36.90
15983;DHT22;14442;50.196;8.096;2023-04-03T13:18:38;23.70;36.80
15983;DHT22;14442;50.196;8.096;2023-04-03T13:21:10;23.70;36.90
15983;DHT22;14442;50.196;8.096;2023-04-03T13:23:43;23.70;36.80
15983;DHT22;14442;50.196;8.096;2023-04-03T13:26:11;23.70;36.80
15983;DHT22;14442;50.196;8.096;2023-04-03T13:28:39;23.70;36.80
15983;DHT22;14442;50.196;8.096;2023-04-03T13:31:13;23.80;36.80
15983;DHT22;14442;50.196;8.096;2023-04-03T13:33:52;23.80;36.80
15983;DHT22;14442;50.196;8.096;2023-04-03T13:36:24;23.80;36.70
15983;DHT22;14442;50.196;8.096;2023-04-03T13:39:05;23.80;36.70
15983;DHT22;14442;50.196;8.096;2023-04-03T13:41:34;23.80;36.70
15983;DHT22;14442;50.196;8.096;2023-04-03T13:44:26;23.80;36.60
15983;DHT22;14442;50.196;8.096;2023-04-03T13:46:54;23.90;36.70
15983;DHT22;14442;50.196;8.096;2023-04-03T13:49:28;23.80;36.60
15983;DHT22;14442;50.196;8.096;2023-04-03T13:51:57;23.90;36.60
15983;DHT22;14442;50.196;8.096;2023-04-03T13:54:29;23.90;36.40
15983;DHT22;14442;50.196;8.096;2023-04-03T13:56:57;23.90;36.40
15983;DHT22;14442;50.196;8.096;2023-04-03T13:59:28;23.90;36.40
15983;DHT22;14442;50.196;8.096;2023-04-03T14:02:10;23.90;36.40
15983;DHT22;14442;50.196;8.096;2023-04-03T14:04:48;23.90;36.40
15983;DHT22;14442;50.196;8.096;2023-04-03T14:07:17;23.90;36.30
15983;DHT22;14442;50.196;8.096;2023-04-03T14:09:45;23.90;36.30
15983;DHT22;14442;50.196;8.096;2023-04-03T14:12:16;23.90;36.20
15983;DHT22;14442;50.196;8.096;2023-04-03T14:14:45;24.00;36.20
15983;DHT22;14442;50.196;8.096;2023-04-03T14:17:15;24.00;36.10
15983;DHT22;14442;50.196;8.096;2023-04-03T14:19:43;23.90;36.00
15983;DHT22;14442;50.196;8.096;2023-04-03T14:22:15;24.00;36.00
15983;DHT22;14442;50.196;8.096;2023-04-03T14:24:44;24.00;36.00
15983;DHT22;14442;50.196;8.096;2023-04-03T14:27:16;24.00;35.90
15983;DHT22;14442;50.196;8.096;2023-04-03T14:29:43;24.00;35.90
15983;DHT22;14442;50.196;8.096;2023-04-03T14:32:11;24.00;35.90
15983;DHT22;14442;50.196;8.096;2023-04-03T14:34:38;24.00;35.90
15983;DHT22;14442;50.196;8.096;2023-04-03T14:37:05;24.00;35.90
15983;DHT22;14442;50.196;8.096;2023-04-03T14:39:32;24.00;35.80
15983;DHT22;14442;50.196;8.096;2023-04-03T14:42:00;24.10;36.00
15983;DHT22;14442;50.196;8.096;2023-04-03T14:44:26;24.10;36.00
15983;DHT22;14442;50.196;8.096;2023-04-03T14:46:53;24.10;35.80
15983;DHT22;14442;50.196;8.096;2023-04-03T14:49:24;24.20;35.90
15983;DHT22;14442;50.196;8.096;2023-04-03T14:51:51;24.20;36.00
15983;DHT22;14442;50.196;8.096;2023-04-03T14:54:21;24.10;36.20
15983;DHT22;14442;50.196;8.096;2023-04-03T14:56:50;24.10;36.20
15983;DHT22;14442;50.196;8.096;2023-04-03T14:59:19;24.00;36.10
15983;DHT22;14442;50.196;8.096;2023-04-03T15:01:47;24.00;36.10
15983;DHT22;14442;50.196;8.096;2023-04-03T15:04:15;24.00;36.10
15983;DHT22;14442;50.196;8.096;2023-04-03T15:06:42;24.00;35.90
15983;DHT22;14442;50.196;8.096;2023-04-03T15:09:18;24.00;35.90
15983;DHT22;14442;50.196;8.096;2023-04-03T15:11:45;24.00;35.80
15983;DHT22;14442;50.196;8.096;2023-04-03T15:14:12;23.90;35.90
15983;DHT22;14442;50.196;8.096;2023-04-03T15:16:40;23.90;35.90
15983;DHT22;14442;50.196;8.096;2023-04-03T15:19:07;23.80;35.90
15983;DHT22;14442;50.196;8.096;2023-04-03T15:21:34;23.80;35.90
15983;DHT22;14442;50.196;8.096;2023-04-03T15:24:01;23.80;36.00
15983;DHT22;14442;50.196;8.096;2023-04-03T15:26:28;23.70;36.00
15983;DHT22;14442;50.196;8.096;2023-04-03T15:28:55;23.70;36.00
15983;DHT22;14442;50.196;8.096;2023-04-03T15:31:22;23.70;36.00
15983;DHT22;14442;50.196;8.096;2023-04-03T15:33:50;23.70;35.90
15983;DHT22;14442;50.196;8.096;2023-04-03T15:36:16;23.70;36.00
15983;DHT22;14442;50.196;8.096;2023-04-03T15:38:43;23.70;36.00
15983;DHT22;14442;50.196;8.096;2023-04-03T15:41:10;23.70;36.00
15983;DHT22;14442;50.196;8.096;2023-04-03T15:43:36;23.60;36.00
15983;DHT22;14442;50.196;8.096;2023-04-03T15:46:03;23.60;36.00
15983;DHT22;14442;50.196;8.096;2023-04-03T15:48:30;23.60;36.00
15983;DHT22;14442;50.196;8.096;2023-04-03T15:50:59;23.60;36.00
15983;DHT22;14442;50.196;8.096;2023-04-03T15:53:26;23.60;36.10
15983;DHT22;14442;50.196;8.096;2023-04-03T15:55:53;23.60;36.10
15983;DHT22;14442;50.196;8.096;2023-04-03T15:58:19;23.60;36.80
15983;DHT22;14442;50.196;8.096;2023-04-03T16:00:46;23.50;36.00